createdAt,value
2018-12-06T00:01:39.197Z,86.81
2018-12-06T00:04:25.764Z,86.88
2018-12-06T00:07:11.002Z,86.76
2018-12-06T00:09:40.078Z,86.97
2018-12-06T00:12:09.712Z,86.82
2018-12-06T00:14:38.879Z,87.01
2018-12-06T00:17:08.089Z,86.92
2018-12-06T00:19:37.210Z,86.79
2018-12-06T00:22:06.365Z,86.83
2018-12-06T00:24:35.402Z,86.75
2018-12-06T00:27:04.519Z,86.75
2018-12-06T00:29:33.699Z,86.64
2018-12-06T00:32:03.078Z,86.75
2018-12-06T00:34:32.164Z,86.85
2018-12-06T00:37:01.429Z,86.76
2018-12-06T00:39:30.749Z,86.90
2018-12-06T00:41:59.837Z,86.80
2018-12-06T00:44:29.039Z,87.00
2018-12-06T00:46:58.354Z,86.83
2018-12-06T00:49:27.648Z,86.80
2018-12-06T00:51:57.705Z,86.76
2018-12-06T00:54:27.061Z,86.86
2018-12-06T00:56:56.986Z,86.81
2018-12-06T00:59:26.587Z,86.99
2018-12-06T01:01:55.751Z,86.90
2018-12-06T01:04:24.974Z,86.87
2018-12-06T01:06:54.124Z,86.80
2018-12-06T01:09:23.613Z,87.00
2018-12-06T01:11:52.893Z,86.59
2018-12-06T01:14:22.174Z,86.66
2018-12-06T01:16:51.305Z,86.56
2018-12-06T01:19:20.384Z,86.55
2018-12-06T01:21:49.450Z,86.48
2018-12-06T01:24:18.545Z,86.44
2018-12-06T01:26:47.640Z,86.36
2018-12-06T01:29:16.778Z,86.33
2018-12-06T01:31:45.909Z,86.62
2018-12-06T01:34:15.041Z,86.34
2018-12-06T01:36:44.149Z,86.65
2018-12-06T01:39:13.261Z,86.58
2018-12-06T01:41:42.428Z,86.70
2018-12-06T01:44:11.628Z,86.65
2018-12-06T01:46:41.376Z,87.00
2018-12-06T01:49:10.454Z,86.53
2018-12-06T01:51:39.629Z,86.70
2018-12-06T01:54:08.970Z,86.83
2018-12-06T01:56:39.017Z,86.59
2018-12-06T01:59:08.147Z,86.69
2018-12-06T02:01:37.288Z,86.66
2018-12-06T02:04:06.478Z,86.72
2018-12-06T02:06:35.723Z,86.63
2018-12-06T02:09:06.193Z,86.99
2018-12-06T02:11:35.339Z,86.93
2018-12-06T02:14:04.451Z,86.97
2018-12-06T02:16:33.632Z,87.10
2018-12-06T02:19:02.811Z,87.07
2018-12-06T02:21:31.939Z,87.06
2018-12-06T02:24:01.086Z,87.17
2018-12-06T02:26:30.341Z,87.07
2018-12-06T02:28:59.544Z,87.20
2018-12-06T02:31:28.706Z,87.02
2018-12-06T02:33:57.833Z,87.29
2018-12-06T03:05:59.189Z,86.92
2018-12-06T03:08:29.251Z,86.92
2018-12-06T03:10:58.320Z,86.67
2018-12-06T03:13:27.381Z,86.67
2018-12-06T03:15:56.428Z,86.64
2018-12-06T03:18:25.593Z,86.76
2018-12-06T03:20:54.975Z,86.68
2018-12-06T03:23:24.092Z,86.65
2018-12-06T03:25:53.184Z,86.62
2018-12-06T03:28:23.350Z,86.67
2018-12-06T03:30:52.439Z,86.67
2018-12-06T03:33:21.625Z,86.57
2018-12-06T03:35:50.776Z,86.74
2018-12-06T03:38:19.969Z,86.64
2018-12-06T03:40:48.979Z,86.49
2018-12-06T03:43:18.501Z,86.37
2018-12-06T03:45:47.600Z,86.31
2018-12-06T03:48:16.662Z,86.36
2018-12-06T03:50:45.724Z,86.33
2018-12-06T03:53:14.803Z,86.31
2018-12-06T03:55:43.881Z,86.41
2018-12-06T03:58:12.974Z,86.16
2018-12-06T04:00:42.060Z,86.19
2018-12-06T04:03:11.243Z,86.15
2018-12-06T04:05:40.289Z,86.11
2018-12-06T04:08:09.349Z,86.23
2018-12-06T04:10:38.372Z,86.07
2018-12-06T04:13:07.462Z,86.10
2018-12-06T04:15:36.496Z,85.86
2018-12-06T04:18:05.734Z,85.98
2018-12-06T04:20:34.905Z,85.95
2018-12-06T04:23:03.967Z,85.88
2018-12-06T04:25:33.108Z,85.75
2018-12-06T04:28:02.182Z,85.79
2018-12-06T04:30:31.242Z,85.72
2018-12-06T04:33:00.305Z,85.73
2018-12-06T04:35:29.502Z,85.65
2018-12-06T04:37:58.611Z,85.68
2018-12-06T04:40:27.717Z,85.71
2018-12-06T04:42:56.797Z,85.73
2018-12-06T04:45:26.871Z,85.88
2018-12-06T04:47:56.129Z,85.84
2018-12-06T04:50:25.228Z,85.61
2018-12-06T04:52:54.334Z,85.49
2018-12-06T04:55:23.450Z,85.56
2018-12-06T04:57:52.552Z,85.50
2018-12-06T05:00:21.646Z,85.42
2018-12-06T05:02:50.671Z,85.27
2018-12-06T05:05:19.849Z,85.38
2018-12-06T05:07:48.941Z,85.43
2018-12-06T05:10:18.660Z,85.31
2018-12-06T05:12:47.756Z,85.29
2018-12-06T05:15:16.866Z,85.49
2018-12-06T05:17:45.935Z,85.41
2018-12-06T05:20:15.059Z,85.58
2018-12-06T05:22:44.150Z,85.45
2018-12-06T05:25:13.179Z,85.34
2018-12-06T05:27:42.379Z,85.40
2018-12-06T05:30:12.768Z,85.64
2018-12-06T05:32:41.900Z,85.28
2018-12-06T05:35:11.181Z,85.55
2018-12-06T05:37:40.350Z,85.68
2018-12-06T05:40:10.346Z,85.31
2018-12-06T05:42:39.888Z,85.68
2018-12-06T05:45:09.047Z,85.55
2018-12-06T05:47:38.282Z,85.50
2018-12-06T05:50:07.880Z,85.56
2018-12-06T05:52:37.007Z,85.42
2018-12-06T05:55:06.176Z,85.61
2018-12-06T05:57:35.299Z,85.73
2018-12-06T06:00:05.449Z,85.69
2018-12-06T06:02:34.667Z,85.84
2018-12-06T06:05:03.871Z,85.67
2018-12-06T06:07:33.109Z,85.66
2018-12-06T06:10:02.349Z,85.41
2018-12-06T06:12:31.443Z,85.71
2018-12-06T06:15:00.476Z,85.46
2018-12-06T06:17:29.590Z,85.46
2018-12-06T06:19:58.715Z,85.32
2018-12-06T06:22:28.708Z,85.44
2018-12-06T06:24:57.774Z,85.49
2018-12-06T06:27:26.887Z,85.30
2018-12-06T06:29:55.975Z,85.48
2018-12-06T06:32:25.069Z,85.38
2018-12-06T06:34:54.142Z,85.22
2018-12-06T06:37:23.261Z,85.31
2018-12-06T06:39:53.026Z,85.17
2018-12-06T06:42:22.066Z,84.96
2018-12-06T06:44:51.093Z,85.12
2018-12-06T06:47:20.359Z,84.95
2018-12-06T06:49:49.534Z,85.06
2018-12-06T06:52:18.656Z,85.08
2018-12-06T06:54:47.892Z,85.24
2018-12-06T06:57:17.168Z,85.05
2018-12-06T06:59:46.367Z,85.08
2018-12-06T07:02:16.174Z,85.25
2018-12-06T07:04:47.578Z,84.97
2018-12-06T07:07:16.687Z,84.93
2018-12-06T07:09:45.736Z,84.69
2018-12-06T07:12:14.804Z,84.79
2018-12-06T07:14:43.923Z,84.65
2018-12-06T07:17:13.105Z,84.58
2018-12-06T07:19:42.231Z,84.71
2018-12-06T07:22:11.297Z,84.59
2018-12-06T07:24:40.559Z,84.48
2018-12-06T07:27:09.654Z,84.54
2018-12-06T07:29:38.772Z,84.38
2018-12-06T07:32:08.072Z,84.42
2018-12-06T07:34:37.160Z,84.16
2018-12-06T07:37:06.336Z,84.23
2018-12-06T07:39:35.463Z,83.99
2018-12-06T07:42:04.582Z,84.04
2018-12-06T07:44:33.780Z,83.85
2018-12-06T07:47:02.969Z,84.08
2018-12-06T07:49:32.154Z,84.12
2018-12-06T07:52:01.367Z,84.09
2018-12-06T07:54:30.639Z,83.94
2018-12-06T07:56:59.854Z,84.03
2018-12-06T07:59:28.909Z,84.12
2018-12-06T08:01:58.459Z,84.04
2018-12-06T08:04:27.571Z,83.90
2018-12-06T08:06:56.842Z,84.20
2018-12-06T08:09:26.736Z,83.87
2018-12-06T08:11:56.551Z,83.99
2018-12-06T08:14:27.975Z,84.07
2018-12-06T08:16:58.408Z,84.15
2018-12-06T08:19:29.200Z,84.03
2018-12-06T08:22:00.488Z,83.97
2018-12-06T08:36:01.005Z,83.67
2018-12-06T08:38:32.148Z,83.64
2018-12-06T08:41:01.188Z,83.66
2018-12-06T08:43:31.822Z,83.64
2018-12-06T08:45:59.656Z,83.45
2018-12-06T08:48:29.066Z,83.38
2018-12-06T08:50:59.338Z,83.18
2018-12-06T08:53:28.444Z,83.37
2018-12-06T08:55:58.595Z,83.20
2018-12-06T08:58:27.795Z,82.80
2018-12-06T09:00:57.021Z,82.91
2018-12-06T09:03:26.318Z,83.04
2018-12-06T09:05:55.696Z,82.60
2018-12-06T09:08:24.888Z,82.91
2018-12-06T09:10:54.398Z,82.90
2018-12-06T09:13:23.717Z,82.67
2018-12-06T09:15:53.011Z,82.78
2018-12-06T09:18:22.207Z,82.47
2018-12-06T09:20:51.589Z,82.85
2018-12-06T09:23:20.752Z,82.80
2018-12-06T09:25:49.916Z,82.92
2018-12-06T09:28:19.106Z,82.63
2018-12-06T09:30:49.646Z,82.58
2018-12-06T09:33:18.833Z,82.51
2018-12-06T09:35:48.187Z,82.55
2018-12-06T09:38:17.435Z,82.78
2018-12-06T09:40:46.629Z,82.76
2018-12-06T09:43:15.745Z,82.63
2018-12-06T09:45:45.005Z,82.85
2018-12-06T09:48:14.191Z,83.00
2018-12-06T09:50:43.336Z,82.50
2018-12-06T09:53:12.773Z,82.60
2018-12-06T09:55:42.032Z,82.77
2018-12-06T09:58:11.137Z,82.71
2018-12-06T10:00:40.196Z,82.90
2018-12-06T10:03:12.630Z,82.88
2018-12-06T10:05:41.899Z,82.83
2018-12-06T10:08:11.156Z,82.98
2018-12-06T10:10:40.402Z,83.25
2018-12-06T10:13:09.468Z,83.02
2018-12-06T10:15:38.535Z,82.92
2018-12-06T10:18:07.658Z,83.20
2018-12-06T10:20:37.121Z,83.06
2018-12-06T10:23:06.445Z,82.94
2018-12-06T10:25:35.969Z,83.11
2018-12-06T10:28:05.340Z,83.06
2018-12-06T10:30:34.504Z,82.98
2018-12-06T10:33:03.583Z,83.07
2018-12-06T10:35:32.671Z,83.19
2018-12-06T10:38:01.830Z,82.84
2018-12-06T10:40:31.426Z,82.98
2018-12-06T10:43:01.611Z,82.71
2018-12-06T10:45:31.515Z,82.74
2018-12-06T10:48:00.567Z,82.89
2018-12-06T10:50:29.864Z,82.87
2018-12-06T10:52:59.048Z,82.83
2018-12-06T10:55:28.331Z,82.87
2018-12-06T10:57:57.563Z,83.01
2018-12-06T11:02:42.242Z,82.89
2018-12-06T11:05:12.517Z,82.88
2018-12-06T11:08:04.690Z,82.83
2018-12-06T11:10:34.146Z,82.82
2018-12-06T11:13:03.329Z,82.96
2018-12-06T11:15:32.551Z,83.03
2018-12-06T11:18:01.877Z,83.12
2018-12-06T11:20:31.024Z,82.97
2018-12-06T11:23:00.191Z,82.95
2018-12-06T11:25:29.335Z,83.12
2018-12-06T11:27:58.526Z,83.14
2018-12-06T11:30:27.627Z,83.33
2018-12-06T11:32:56.739Z,83.28
2018-12-06T11:35:26.517Z,83.19
2018-12-06T11:37:55.567Z,82.88
2018-12-06T11:40:24.888Z,83.31
2018-12-06T11:42:54.217Z,83.10
2018-12-06T11:45:23.537Z,83.04
2018-12-06T11:47:52.827Z,83.25
2018-12-06T11:50:22.970Z,83.27
2018-12-06T11:52:52.099Z,83.25
2018-12-06T11:55:21.472Z,82.94
2018-12-06T11:57:50.451Z,83.10
2018-12-06T12:00:19.675Z,83.07
2018-12-06T12:02:48.886Z,83.38
2018-12-06T12:05:17.970Z,83.12
2018-12-06T12:07:47.353Z,83.39
2018-12-06T12:10:16.550Z,83.50
2018-12-06T12:12:49.605Z,83.52
2018-12-06T12:15:18.762Z,83.27
2018-12-06T12:17:49.039Z,83.35
2018-12-06T12:20:18.346Z,83.33
2018-12-06T12:22:47.744Z,83.35
2018-12-06T12:25:17.376Z,83.33
2018-12-06T12:27:48.892Z,83.44
2018-12-06T12:30:19.708Z,83.34
2018-12-06T12:32:49.073Z,83.58
2018-12-06T12:35:18.894Z,83.42
2018-12-06T12:37:47.816Z,83.48
2018-12-06T12:40:17.656Z,83.52
2018-12-06T12:42:47.994Z,83.27
2018-12-06T12:45:17.208Z,83.24
2018-12-06T12:47:46.331Z,83.55
2018-12-06T12:50:15.523Z,83.65
2018-12-06T12:52:44.861Z,83.48
2018-12-06T12:55:14.100Z,83.34
2018-12-06T12:57:43.164Z,83.30
2018-12-06T13:00:12.621Z,83.57
2018-12-06T13:02:41.690Z,83.46
2018-12-06T13:05:10.746Z,83.40
2018-12-06T13:07:39.990Z,83.66
2018-12-06T13:10:09.092Z,83.45
2018-12-06T13:12:38.369Z,83.31
2018-12-06T13:15:09.222Z,83.48
2018-12-06T13:17:38.374Z,83.33
2018-12-06T13:20:07.665Z,83.57
2018-12-06T13:22:36.805Z,83.57
2018-12-06T13:25:06.513Z,83.56
2018-12-06T13:27:35.717Z,83.64
2018-12-06T13:30:05.739Z,83.41
2018-12-06T13:32:34.928Z,83.51
2018-12-06T13:35:04.123Z,83.47
2018-12-06T13:37:33.293Z,83.56
2018-12-06T13:40:02.493Z,83.47
2018-12-06T13:42:31.647Z,83.64
2018-12-06T13:45:00.812Z,83.60
2018-12-06T13:47:34.325Z,83.72
2018-12-06T13:50:06.494Z,83.73
2018-12-06T13:52:35.794Z,83.81
2018-12-06T13:55:05.411Z,83.66
2018-12-06T13:57:35.135Z,83.67
2018-12-06T14:00:04.707Z,83.60
2018-12-06T14:02:33.831Z,83.56
2018-12-06T14:05:03.009Z,83.64
2018-12-06T14:07:35.873Z,83.65
2018-12-06T14:12:39.234Z,83.50
2018-12-06T14:15:09.839Z,83.71
2018-12-06T14:17:39.024Z,83.67
2018-12-06T14:20:09.630Z,83.89
2018-12-06T14:25:13.623Z,83.54
2018-12-06T14:27:42.693Z,83.70
2018-12-06T14:30:11.973Z,83.51
2018-12-06T14:32:41.112Z,83.77
2018-12-06T14:35:10.916Z,83.63
2018-12-06T14:37:40.365Z,84.11
2018-12-06T14:40:09.641Z,84.47
2018-12-06T14:42:39.312Z,84.24
2018-12-06T14:45:09.124Z,84.71
2018-12-06T14:47:38.917Z,84.68
2018-12-06T14:50:08.893Z,84.41
2018-12-06T14:52:38.141Z,84.57
2018-12-06T14:55:07.335Z,84.41
2018-12-06T14:57:36.545Z,84.74
2018-12-06T15:00:07.444Z,84.60
2018-12-06T15:02:37.208Z,84.90
2018-12-06T15:05:08.096Z,84.55
2018-12-06T15:07:37.293Z,84.37
2018-12-06T15:10:07.741Z,84.90
2018-12-06T15:12:36.841Z,85.12
2018-12-06T15:15:06.471Z,85.00
2018-12-06T15:17:35.720Z,84.78
2018-12-06T15:20:05.049Z,85.06
2018-12-06T15:22:34.380Z,85.14
2018-12-06T15:25:06.353Z,84.87
2018-12-06T15:27:37.807Z,85.10
2018-12-06T15:30:05.711Z,84.98
2018-12-06T15:32:34.827Z,85.05
2018-12-06T15:35:04.042Z,85.19
2018-12-06T15:37:33.226Z,85.14
2018-12-06T15:40:03.230Z,85.12
2018-12-06T15:42:32.409Z,84.95
2018-12-06T15:45:01.511Z,85.02
2018-12-06T15:47:30.753Z,85.11
2018-12-06T15:50:00.764Z,85.15
2018-12-06T15:52:29.927Z,85.07
2018-12-06T15:54:59.124Z,84.95
2018-12-06T15:57:29.173Z,84.94
2018-12-06T15:59:58.390Z,85.19
2018-12-06T16:02:27.562Z,85.16
2018-12-06T16:04:56.753Z,85.09
2018-12-06T16:07:26.115Z,85.01
2018-12-06T16:09:55.237Z,85.01
2018-12-06T16:12:24.357Z,84.92
2018-12-06T16:14:53.443Z,85.17
2018-12-06T16:17:22.573Z,85.18
2018-12-06T16:19:51.684Z,85.31
2018-12-06T16:22:21.587Z,84.90
2018-12-06T16:24:51.298Z,84.89
2018-12-06T16:27:31.277Z,85.04
2018-12-06T16:30:00.520Z,85.02
2018-12-06T16:32:35.592Z,85.03
2018-12-06T16:35:17.184Z,84.88
2018-12-06T16:37:47.056Z,84.93
2018-12-06T16:40:16.258Z,84.86
2018-12-06T16:42:45.557Z,84.80
2018-12-06T16:45:14.658Z,85.06
2018-12-06T16:47:44.172Z,84.87
2018-12-06T16:50:13.406Z,84.67
2018-12-06T16:52:42.480Z,84.83
2018-12-06T16:55:11.650Z,85.04
2018-12-06T16:57:40.756Z,84.89
2018-12-06T17:00:14.590Z,85.12
2018-12-06T17:02:42.226Z,85.08
2018-12-06T17:05:11.449Z,84.92
2018-12-06T17:07:41.016Z,85.02
2018-12-06T17:10:10.185Z,85.19
2018-12-06T17:12:39.339Z,85.07
2018-12-06T17:15:09.627Z,85.06
2018-12-06T17:17:39.895Z,84.82
2018-12-06T17:20:13.790Z,85.11
2018-12-06T17:22:42.998Z,84.94
2018-12-06T17:25:13.835Z,84.73
2018-12-06T17:27:42.903Z,84.90
2018-12-06T17:30:13.747Z,85.02
2018-12-06T17:32:42.347Z,84.86
2018-12-06T17:35:11.448Z,84.71
2018-12-06T17:37:40.934Z,84.87
2018-12-06T17:40:10.404Z,84.97
2018-12-06T17:42:40.451Z,84.97
2018-12-06T17:45:10.475Z,85.14
2018-12-06T17:47:39.651Z,84.92
2018-12-06T17:50:09.090Z,85.06
2018-12-06T17:52:38.960Z,85.09
2018-12-06T17:55:08.391Z,84.83
2018-12-06T17:57:37.597Z,84.91
2018-12-06T18:00:08.726Z,84.61
2018-12-06T18:02:37.885Z,84.76
2018-12-06T18:05:07.415Z,84.70
2018-12-06T18:07:36.459Z,85.00
2018-12-06T18:10:06.239Z,84.59
2018-12-06T18:12:35.339Z,84.86
2018-12-06T18:15:04.718Z,85.00
2018-12-06T18:17:33.822Z,84.57
2018-12-06T18:20:03.456Z,84.54
2018-12-06T18:22:33.716Z,84.56
2018-12-06T18:25:03.573Z,84.72
2018-12-06T18:27:32.840Z,84.42
2018-12-06T18:30:02.019Z,84.79
2018-12-06T18:32:31.252Z,84.43
2018-12-06T18:35:05.579Z,84.58
2018-12-06T18:37:34.742Z,84.55
2018-12-06T18:40:04.287Z,85.01
2018-12-06T18:42:33.475Z,84.64
2018-12-06T18:45:02.606Z,84.72
2018-12-06T18:47:31.778Z,84.91
2018-12-06T18:50:00.910Z,85.23
2018-12-06T18:52:30.080Z,85.13
2018-12-06T18:54:59.173Z,85.00
2018-12-06T18:57:28.977Z,85.11
2018-12-06T18:59:59.151Z,85.27
2018-12-06T19:02:28.412Z,85.27
2018-12-06T19:04:57.811Z,85.43
2018-12-06T19:07:27.005Z,85.33
2018-12-06T19:09:57.775Z,85.38
2018-12-06T19:12:33.994Z,85.58
2018-12-06T19:17:28.709Z,85.51
2018-12-06T19:19:59.530Z,85.43
2018-12-06T19:22:30.501Z,85.38
2018-12-06T19:25:01.109Z,85.36
2018-12-06T19:27:34.647Z,85.33
2018-12-06T19:30:04.064Z,85.52
2018-12-06T19:32:33.926Z,85.53
2018-12-06T19:35:03.570Z,85.45
2018-12-06T19:37:34.709Z,85.33
2018-12-06T19:40:05.312Z,85.68
2018-12-06T19:42:38.729Z,85.76
2018-12-06T19:45:03.699Z,85.81
2018-12-06T19:47:32.898Z,85.76
2018-12-06T19:50:02.584Z,85.57
2018-12-06T19:52:31.907Z,85.75
2018-12-06T19:55:01.303Z,85.84
2018-12-06T19:57:35.405Z,85.83
2018-12-06T20:00:04.725Z,85.66
2018-12-06T20:02:34.863Z,85.77
2018-12-06T20:05:04.585Z,86.00
2018-12-06T20:07:34.280Z,85.82
2018-12-06T20:10:04.616Z,86.03
2018-12-06T20:12:34.070Z,85.68
2018-12-06T20:17:42.828Z,86.13
2018-12-06T20:20:23.192Z,85.94
2018-12-06T20:22:46.631Z,86.07
2018-12-06T20:25:18.761Z,85.89
2018-12-06T20:27:48.010Z,85.87
2018-12-06T20:30:17.133Z,85.88
2018-12-06T20:32:46.514Z,86.00
2018-12-06T20:35:16.652Z,85.90
2018-12-06T20:37:47.950Z,85.94
2018-12-06T20:40:17.135Z,85.80
2018-12-06T20:42:48.060Z,85.81
2018-12-06T20:45:17.638Z,85.82
2018-12-06T20:47:46.872Z,86.10
2018-12-06T20:50:16.399Z,85.95
2018-12-06T20:52:46.637Z,85.79
2018-12-06T20:55:15.771Z,85.62
2018-12-06T20:57:44.842Z,85.82
2018-12-06T21:00:14.035Z,85.82
2018-12-06T21:02:43.132Z,85.68
2018-12-06T21:05:12.227Z,85.82
2018-12-06T21:07:41.854Z,85.68
2018-12-06T21:10:10.993Z,85.61
2018-12-06T21:12:41.581Z,86.00
2018-12-06T21:15:10.772Z,85.56
2018-12-06T21:17:39.926Z,85.45
2018-12-06T21:20:13.432Z,85.70
2018-12-06T21:22:44.135Z,85.62
2018-12-06T21:25:13.505Z,85.60
2018-12-06T21:27:48.602Z,85.64
2018-12-06T21:30:17.810Z,85.75
2018-12-06T21:32:46.945Z,85.62
2018-12-06T21:35:16.035Z,85.76
2018-12-06T21:37:45.196Z,85.47
2018-12-06T21:40:14.585Z,85.62
2018-12-06T21:42:45.562Z,85.71
2018-12-06T21:45:15.380Z,85.82
2018-12-06T21:47:48.460Z,85.84
2018-12-06T21:50:17.745Z,85.81
2018-12-06T21:52:47.588Z,85.76
2018-12-06T21:55:18.791Z,86.00
2018-12-06T21:57:48.604Z,85.72
2018-12-06T22:00:18.380Z,85.71
2018-12-06T22:02:48.083Z,85.33
2018-12-06T22:05:17.990Z,85.63
2018-12-06T22:07:47.165Z,85.67
2018-12-06T22:10:16.343Z,85.59
2018-12-06T22:12:46.104Z,85.99
2018-12-06T22:15:15.957Z,85.84
2018-12-06T22:17:45.647Z,85.58
2018-12-06T22:20:15.454Z,85.96
2018-12-06T22:22:44.646Z,85.95
2018-12-06T22:25:13.855Z,86.03
2018-12-06T22:27:46.286Z,86.17
2018-12-06T22:30:20.124Z,85.81
2018-12-06T22:32:49.565Z,85.82
2018-12-06T22:35:18.722Z,85.92
2018-12-06T22:37:48.014Z,85.75
2018-12-06T22:40:18.048Z,85.87
2018-12-06T22:42:47.216Z,85.52
2018-12-06T22:45:55.438Z,85.63
2018-12-06T22:48:24.640Z,85.59
2018-12-06T22:50:53.933Z,85.47
2018-12-06T22:53:23.216Z,85.46
2018-12-06T22:55:52.319Z,85.71
2018-12-06T22:58:21.478Z,85.46
2018-12-06T23:00:56.863Z,85.41
2018-12-06T23:03:26.112Z,85.41
2018-12-06T23:05:56.443Z,85.31
2018-12-06T23:08:26.111Z,85.36
2018-12-06T23:10:55.912Z,85.13
2018-12-06T23:13:25.293Z,85.08
2018-12-06T23:15:54.510Z,85.14
2018-12-06T23:18:45.102Z,84.95
2018-12-06T23:21:31.794Z,85.17
2018-12-06T23:24:21.170Z,85.17
2018-12-06T23:27:11.666Z,85.16
2018-12-06T23:30:00.032Z,85.49
2018-12-06T23:32:48.451Z,85.46
2018-12-06T23:35:35.397Z,85.40
2018-12-06T23:38:05.849Z,85.55
2018-12-06T23:40:53.927Z,85.69
2018-12-06T23:43:46.529Z,85.55
2018-12-06T23:46:36.761Z,85.87
2018-12-06T23:49:06.058Z,85.75
2018-12-06T23:51:43.446Z,85.76
2018-12-06T23:54:29.519Z,85.91
2018-12-06T23:57:18.603Z,85.99
